createdAt,value
2022-10-09T00:01:31.174Z,101410.56
2022-10-09T00:03:59.600Z,101410.03
2022-10-09T00:06:30.791Z,101409.56
2022-10-09T00:09:01.908Z,101413.34
2022-10-09T00:11:31.864Z,101417.28
2022-10-09T00:14:00.881Z,101412.34
2022-10-09T00:16:29.643Z,101411.38
2022-10-09T00:18:58.156Z,101417.69
2022-10-09T00:21:31.978Z,101413.63
2022-10-09T00:24:01.873Z,101416.84
2022-10-09T00:26:30.132Z,101416.31
2022-10-09T00:28:58.904Z,101423.47
2022-10-09T00:31:26.601Z,101417.84
2022-10-09T00:33:54.051Z,101411.41
2022-10-09T00:36:25.794Z,101416.72
2022-10-09T00:38:54.933Z,101419.50
2022-10-09T00:41:26.407Z,101420.50
2022-10-09T00:43:59.957Z,101414.50
2022-10-09T00:46:33.694Z,101413.19
2022-10-09T00:49:13.471Z,101415.03
2022-10-09T00:51:44.880Z,101413.50
2022-10-09T00:54:16.376Z,101410.25
2022-10-09T00:56:44.192Z,101411.69
2022-10-09T00:59:12.665Z,101417.53
2022-10-09T01:01:41.769Z,101415.84
2022-10-09T01:04:09.741Z,101410.13
2022-10-09T01:06:43.173Z,101405.50
2022-10-09T01:09:18.421Z,101412.66
2022-10-09T01:12:09.253Z,101402.56
2022-10-09T01:14:50.531Z,101402.03
2022-10-09T01:17:29.443Z,101400.47
2022-10-09T01:20:03.208Z,101405.78
2022-10-09T01:23:18.028Z,101402.75
2022-10-09T01:26:20.580Z,101409.16
2022-10-09T01:28:56.721Z,101402.19
2022-10-09T01:31:27.818Z,101396.16
2022-10-09T01:33:55.564Z,101400.50
2022-10-09T01:36:24.624Z,101395.44
2022-10-09T01:38:53.752Z,101399.50
2022-10-09T01:41:21.675Z,101388.44
2022-10-09T01:43:49.197Z,101398.53
2022-10-09T01:46:28.814Z,101384.53
2022-10-09T01:49:29.116Z,101390.97
2022-10-09T01:52:23.551Z,101389.28
2022-10-09T01:55:08.793Z,101401.34
2022-10-09T01:57:56.514Z,101392.50
2022-10-09T02:00:24.706Z,101402.75
2022-10-09T02:02:54.016Z,101396.59
2022-10-09T02:05:26.113Z,101393.22
2022-10-09T02:07:54.801Z,101391.25
2022-10-09T02:10:25.231Z,101392.66
2022-10-09T02:12:57.848Z,101397.44
2022-10-09T02:15:32.980Z,101399.38
2022-10-09T02:18:08.501Z,101390.97
2022-10-09T02:20:39.663Z,101384.66
2022-10-09T02:23:09.298Z,101388.88
2022-10-09T02:25:37.754Z,101384.81
2022-10-09T02:28:06.057Z,101383.97
2022-10-09T02:30:48.197Z,101388.28
2022-10-09T02:33:15.771Z,101389.72
2022-10-09T02:35:43.884Z,101396.25
2022-10-09T02:38:11.481Z,101389.97
2022-10-09T02:40:38.989Z,101383.41
2022-10-09T02:43:06.497Z,101386.19
2022-10-09T02:45:34.838Z,101388.16
2022-10-09T02:48:02.314Z,101387.44
2022-10-09T02:50:29.845Z,101380.31
2022-10-09T02:52:57.403Z,101382.56
2022-10-09T02:55:24.877Z,101387.31
2022-10-09T02:57:52.869Z,101392.75
2022-10-09T03:00:20.395Z,101385.09
2022-10-09T03:02:48.158Z,101386.91
2022-10-09T03:05:15.965Z,101380.59
2022-10-09T03:07:51.090Z,101387.16
2022-10-09T03:10:20.617Z,101387.59
2022-10-09T03:12:48.949Z,101384.19
2022-10-09T03:15:16.817Z,101386.31
2022-10-09T03:17:45.058Z,101385.91
2022-10-09T03:20:13.130Z,101396.69
2022-10-09T03:22:41.247Z,101398.63
2022-10-09T03:25:09.440Z,101398.88
2022-10-09T03:27:37.559Z,101392.34
2022-10-09T03:30:06.361Z,101390.66
2022-10-09T03:32:34.050Z,101399.06
2022-10-09T03:35:02.174Z,101394.59
2022-10-09T03:37:29.655Z,101401.28
2022-10-09T03:39:57.436Z,101396.97
2022-10-09T03:42:25.294Z,101402.72
2022-10-09T03:44:53.662Z,101401.31
2022-10-09T03:47:21.227Z,101398.91
2022-10-09T03:49:48.944Z,101399.75
2022-10-09T03:52:16.716Z,101403.56
2022-10-09T03:54:44.187Z,101401.56
2022-10-09T03:57:11.693Z,101402.38
2022-10-09T03:59:39.303Z,101402.66
2022-10-09T04:02:07.554Z,101403.78
2022-10-09T04:04:35.052Z,101407.03
2022-10-09T04:07:02.562Z,101401.81
2022-10-09T04:09:30.075Z,101399.88
2022-10-09T04:11:58.436Z,101406.88
2022-10-09T04:14:25.973Z,101405.03
2022-10-09T04:16:54.020Z,101408.25
2022-10-09T04:19:21.488Z,101417.81
2022-10-09T04:21:49.920Z,101409.09
2022-10-09T04:24:18.126Z,101409.50
2022-10-09T04:26:45.657Z,101415.94
2022-10-09T04:29:13.934Z,101416.66
2022-10-09T04:31:41.643Z,101420.22
2022-10-09T04:34:09.287Z,101417.44
2022-10-09T04:36:37.621Z,101425.75
2022-10-09T04:39:05.747Z,101417.50
2022-10-09T04:41:37.986Z,101419.13
2022-10-09T04:44:06.280Z,101423.09
2022-10-09T04:46:33.923Z,101423.81
2022-10-09T04:49:01.468Z,101425.06
2022-10-09T04:51:29.666Z,101422.78
2022-10-09T04:54:00.616Z,101426.25
2022-10-09T04:56:28.902Z,101434.59
2022-10-09T04:58:56.916Z,101433.91
2022-10-09T05:01:27.300Z,101436.41
2022-10-09T05:03:56.225Z,101433.59
2022-10-09T05:06:25.069Z,101435.13
2022-10-09T05:08:53.377Z,101427.69
2022-10-09T05:11:23.687Z,101432.75
2022-10-09T05:13:53.893Z,101430.69
2022-10-09T05:16:27.717Z,101434.19
2022-10-09T05:18:58.196Z,101431.31
2022-10-09T05:21:27.925Z,101431.19
2022-10-09T05:23:56.504Z,101430.50
2022-10-09T05:26:25.840Z,101432.75
2022-10-09T05:28:53.541Z,101433.16
2022-10-09T05:31:26.604Z,101433.44
2022-10-09T05:33:56.011Z,101441.84
2022-10-09T05:36:23.752Z,101444.41
2022-10-09T05:38:52.077Z,101431.59
2022-10-09T05:41:20.160Z,101441.75
2022-10-09T05:43:49.413Z,101444.25
2022-10-09T05:46:25.533Z,101445.38
2022-10-09T05:48:55.911Z,101446.00
2022-10-09T05:51:28.931Z,101447.03
2022-10-09T05:53:57.212Z,101454.94
2022-10-09T05:56:30.416Z,101460.72
2022-10-09T05:59:03.884Z,101459.88
2022-10-09T06:01:41.269Z,101466.16
2022-10-09T06:04:13.442Z,101477.03
2022-10-09T06:06:41.557Z,101477.53
2022-10-09T06:09:11.087Z,101477.59
2022-10-09T06:11:40.537Z,101476.88
2022-10-09T06:14:10.957Z,101481.94
2022-10-09T06:16:41.449Z,101485.38
2022-10-09T06:19:12.194Z,101488.94
2022-10-09T06:21:39.899Z,101482.00
2022-10-09T06:24:08.026Z,101481.28
2022-10-09T06:26:35.568Z,101488.09
2022-10-09T06:29:03.558Z,101487.13
2022-10-09T06:31:32.916Z,101495.59
2022-10-09T06:34:01.964Z,101497.84
2022-10-09T06:36:33.414Z,101494.47
2022-10-09T06:39:03.699Z,101501.78
2022-10-09T06:41:31.769Z,101500.09
2022-10-09T06:44:01.968Z,101501.41
2022-10-09T06:46:35.707Z,101512.94
2022-10-09T06:49:04.957Z,101512.41
2022-10-09T06:51:33.807Z,101511.56
2022-10-09T06:54:04.494Z,101518.44
2022-10-09T06:56:32.475Z,101521.88
2022-10-09T06:59:02.526Z,101527.72
2022-10-09T07:01:34.686Z,101537.59
2022-10-09T07:04:09.875Z,101545.00
2022-10-09T07:06:39.956Z,101543.38
2022-10-09T07:09:11.295Z,101545.34
2022-10-09T07:11:44.926Z,101542.84
2022-10-09T07:14:14.306Z,101552.25
2022-10-09T07:16:44.790Z,101548.19
2022-10-09T07:19:13.977Z,101550.00
2022-10-09T07:21:44.229Z,101550.81
2022-10-09T07:24:13.404Z,101556.84
2022-10-09T07:26:44.181Z,101557.84
2022-10-09T07:29:14.551Z,101557.72
2022-10-09T07:31:43.199Z,101562.00
2022-10-09T07:34:11.483Z,101555.25
2022-10-09T07:36:39.618Z,101553.59
2022-10-09T07:39:07.604Z,101558.44
2022-10-09T07:41:35.462Z,101553.63
2022-10-09T07:44:03.228Z,101556.53
2022-10-09T07:46:34.028Z,101560.22
2022-10-09T07:49:03.111Z,101565.88
2022-10-09T07:51:32.790Z,101561.28
2022-10-09T07:54:02.150Z,101572.59
2022-10-09T07:56:35.814Z,101566.34
2022-10-09T07:59:07.264Z,101568.94
2022-10-09T08:01:36.151Z,101576.41
2022-10-09T08:04:04.263Z,101579.91
2022-10-09T08:06:32.686Z,101575.56
2022-10-09T08:09:02.525Z,101583.72
2022-10-09T08:11:31.107Z,101578.50
2022-10-09T08:13:59.267Z,101572.91
2022-10-09T08:16:28.199Z,101576.25
2022-10-09T08:18:58.471Z,101581.78
2022-10-09T08:21:28.672Z,101582.97
2022-10-09T08:23:58.063Z,101579.19
2022-10-09T08:26:30.258Z,101581.09
2022-10-09T08:29:05.592Z,101576.06
2022-10-09T08:31:33.205Z,101583.97
2022-10-09T08:34:03.387Z,101586.66
2022-10-09T08:36:31.547Z,101582.78
2022-10-09T08:38:59.148Z,101574.50
2022-10-09T08:41:29.819Z,101575.44
2022-10-09T08:44:10.434Z,101577.44
2022-10-09T08:46:46.975Z,101573.44
2022-10-09T08:49:37.700Z,101578.81
2022-10-09T08:52:36.161Z,101574.06
2022-10-09T08:55:21.541Z,101578.59
2022-10-09T08:57:52.165Z,101572.63
2022-10-09T09:00:22.654Z,101577.63
2022-10-09T09:03:09.201Z,101567.88
2022-10-09T09:05:43.039Z,101561.09
2022-10-09T09:08:44.280Z,101571.44
2022-10-09T09:11:36.739Z,101564.41
2022-10-09T09:14:14.383Z,101570.97
2022-10-09T09:17:29.313Z,101569.41
2022-10-09T09:20:03.707Z,101575.88
2022-10-09T09:22:32.669Z,101567.06
2022-10-09T09:25:17.887Z,101570.69
2022-10-09T09:27:46.263Z,101567.34
2022-10-09T09:30:51.977Z,101565.78
2022-10-09T09:33:26.028Z,101569.19
2022-10-09T09:36:09.123Z,101566.50
2022-10-09T09:38:54.213Z,101565.25
2022-10-09T09:41:25.725Z,101569.59
2022-10-09T09:43:53.257Z,101565.88
2022-10-09T09:46:24.428Z,101563.09
2022-10-09T09:48:52.128Z,101563.97
2022-10-09T09:51:28.674Z,101569.59
2022-10-09T09:54:05.239Z,101561.91
2022-10-09T09:57:10.449Z,101565.84
2022-10-09T09:59:36.673Z,101555.22
2022-10-09T10:02:11.792Z,101564.75
2022-10-09T10:04:54.140Z,101565.91
2022-10-09T10:07:36.487Z,101566.06
2022-10-09T10:10:10.137Z,101568.09
2022-10-09T10:12:59.390Z,101562.22
2022-10-09T10:15:29.636Z,101557.50
2022-10-09T10:18:17.547Z,101560.19
2022-10-09T10:20:49.766Z,101563.47
2022-10-09T10:23:40.908Z,101563.16
2022-10-09T10:26:25.919Z,101566.78
2022-10-09T10:29:34.759Z,101565.22
2022-10-09T10:32:17.451Z,101567.19
2022-10-09T10:34:58.007Z,101568.03
2022-10-09T10:37:31.368Z,101552.94
2022-10-09T10:40:01.797Z,101564.38
2022-10-09T10:42:44.917Z,101566.44
2022-10-09T10:45:26.367Z,101562.06
2022-10-09T10:47:58.478Z,101558.63
2022-10-09T10:50:31.147Z,101557.38
2022-10-09T10:53:14.115Z,101555.13
2022-10-09T10:56:09.181Z,101544.19
2022-10-09T10:59:07.718Z,101556.97
2022-10-09T11:01:57.922Z,101554.34
2022-10-09T11:05:01.064Z,101556.78
2022-10-09T11:08:03.573Z,101557.50
2022-10-09T11:10:54.549Z,101552.44
2022-10-09T11:13:56.220Z,101552.19
2022-10-09T11:16:35.769Z,101551.97
2022-10-09T11:19:20.789Z,101554.09
2022-10-09T11:21:56.965Z,101549.06
2022-10-09T11:24:59.636Z,101553.06
2022-10-09T11:27:32.287Z,101547.00
2022-10-09T11:30:15.639Z,101537.41
2022-10-09T11:32:45.985Z,101542.00
2022-10-09T11:35:22.252Z,101544.34
2022-10-09T11:38:04.836Z,101540.19
2022-10-09T11:40:38.260Z,101539.59
2022-10-09T11:43:27.317Z,101531.28
2022-10-09T12:14:29.681Z,101497.91
2022-10-09T12:16:59.100Z,101496.13
2022-10-09T12:19:38.265Z,101485.56
2022-10-09T12:22:23.476Z,101488.53
2022-10-09T12:24:55.232Z,101478.75
2022-10-09T12:27:28.654Z,101471.97
2022-10-09T12:29:59.734Z,101476.25
2022-10-09T12:32:31.884Z,101474.47
2022-10-09T12:35:04.710Z,101475.69
2022-10-09T12:37:35.750Z,101476.97
2022-10-09T12:40:31.681Z,101461.59
2022-10-09T12:43:06.450Z,101460.19
2022-10-09T12:45:34.002Z,101454.75
2022-10-09T12:48:10.513Z,101443.09
2022-10-09T12:50:38.796Z,101440.03
2022-10-09T12:53:15.358Z,101435.88
2022-10-09T12:55:50.161Z,101440.47
2022-10-09T12:58:26.714Z,101439.91
2022-10-09T13:01:01.617Z,101439.56
2022-10-09T13:03:43.637Z,101437.06
2022-10-09T13:06:20.959Z,101434.84
2022-10-09T13:09:04.250Z,101432.09
2022-10-09T13:11:43.091Z,101439.72
2022-10-09T13:14:52.500Z,101427.56
2022-10-09T13:17:29.360Z,101436.56
2022-10-09T13:20:00.362Z,101419.28
2022-10-09T13:22:35.048Z,101419.31
2022-10-09T13:25:05.021Z,101427.00
2022-10-09T13:27:37.461Z,101418.69
2022-10-09T13:30:06.583Z,101409.28
2022-10-09T13:32:34.102Z,101409.38
2022-10-09T13:35:01.685Z,101409.44
2022-10-09T13:37:29.720Z,101413.63
2022-10-09T13:39:59.210Z,101415.84
2022-10-09T13:42:31.448Z,101410.16
2022-10-09T13:44:59.027Z,101413.97
2022-10-09T13:47:26.918Z,101409.56
2022-10-09T13:49:55.091Z,101412.41
2022-10-09T13:52:22.625Z,101411.59
2022-10-09T13:54:50.687Z,101409.25
2022-10-09T13:57:18.177Z,101403.81
2022-10-09T13:59:46.802Z,101413.63
2022-10-09T14:02:14.879Z,101409.06
2022-10-09T14:04:42.701Z,101405.41
2022-10-09T14:07:10.813Z,101398.59
2022-10-09T14:09:38.519Z,101401.22
2022-10-09T14:12:06.521Z,101390.84
2022-10-09T14:14:34.289Z,101393.56
2022-10-09T14:17:01.865Z,101400.44
2022-10-09T14:19:29.615Z,101400.97
2022-10-09T14:21:58.584Z,101388.97
2022-10-09T14:24:26.655Z,101401.50
2022-10-09T14:26:55.204Z,101392.72
2022-10-09T14:29:22.895Z,101390.75
2022-10-09T14:31:53.951Z,101396.81
2022-10-09T14:34:21.982Z,101394.28
2022-10-09T14:36:50.330Z,101390.63
2022-10-09T14:39:17.955Z,101386.34
2022-10-09T14:41:46.001Z,101390.06
2022-10-09T14:44:13.738Z,101387.72
2022-10-09T14:46:41.444Z,101387.41
2022-10-09T14:49:10.803Z,101393.53
2022-10-09T14:51:40.512Z,101383.94
2022-10-09T14:54:09.551Z,101386.44
2022-10-09T14:56:37.756Z,101381.00
2022-10-09T14:59:06.194Z,101379.91
2022-10-09T15:01:34.920Z,101376.75
2022-10-09T15:04:04.631Z,101369.00
2022-10-09T15:06:34.133Z,101360.72
2022-10-09T15:09:05.639Z,101369.38
2022-10-09T15:11:35.345Z,101372.19
2022-10-09T15:14:04.680Z,101360.16
2022-10-09T15:16:32.714Z,101356.91
2022-10-09T15:19:00.674Z,101356.56
2022-10-09T15:21:33.147Z,101359.06
2022-10-09T15:24:02.900Z,101350.97
2022-10-09T15:26:36.303Z,101352.13
2022-10-09T15:29:07.013Z,101349.47
2022-10-09T15:31:39.927Z,101357.53
2022-10-09T15:34:09.004Z,101358.28
2022-10-09T15:36:40.020Z,101357.25
2022-10-09T15:39:09.095Z,101358.81
2022-10-09T15:41:39.514Z,101354.81
2022-10-09T15:44:19.061Z,101347.94
2022-10-09T15:46:48.139Z,101351.72
2022-10-09T15:49:15.705Z,101352.41
2022-10-09T15:51:43.263Z,101352.59
2022-10-09T15:54:11.974Z,101348.41
2022-10-09T15:56:41.458Z,101349.97
2022-10-09T15:59:12.710Z,101349.88
2022-10-09T16:01:40.834Z,101348.69
2022-10-09T16:04:10.884Z,101354.69
2022-10-09T16:06:38.837Z,101354.72
2022-10-09T16:09:06.517Z,101356.72
2022-10-09T16:11:34.774Z,101362.75
2022-10-09T16:14:02.380Z,101361.56
2022-10-09T16:16:30.476Z,101363.41
2022-10-09T16:18:58.156Z,101363.56
2022-10-09T16:21:28.549Z,101371.56
2022-10-09T16:23:59.091Z,101366.75
2022-10-09T16:26:29.464Z,101374.66
2022-10-09T16:28:59.167Z,101364.47
2022-10-09T16:31:34.954Z,101370.56
2022-10-09T16:34:05.281Z,101370.88
2022-10-09T16:36:33.480Z,101368.66
2022-10-09T16:39:02.007Z,101368.97
2022-10-09T16:41:29.606Z,101376.13
2022-10-09T16:44:00.216Z,101372.16
2022-10-09T16:46:31.871Z,101379.16
2022-10-09T16:49:02.838Z,101375.78
2022-10-09T16:51:34.982Z,101387.88
2022-10-09T16:54:05.426Z,101393.94
2022-10-09T16:56:36.945Z,101384.56
2022-10-09T16:59:11.009Z,101390.94
2022-10-09T17:01:43.650Z,101392.50
2022-10-09T17:04:12.952Z,101396.16
2022-10-09T17:06:42.103Z,101401.44
2022-10-09T17:09:13.923Z,101400.59
2022-10-09T17:11:43.405Z,101405.31
2022-10-09T17:14:12.053Z,101405.56
2022-10-09T17:16:41.264Z,101404.38
2022-10-09T17:19:09.621Z,101404.91
2022-10-09T17:21:37.571Z,101409.31
2022-10-09T17:24:06.194Z,101408.66
2022-10-09T17:26:35.167Z,101416.31
2022-10-09T17:29:04.750Z,101415.47
2022-10-09T17:31:32.442Z,101411.41
2022-10-09T17:34:02.207Z,101415.75
2022-10-09T17:36:32.418Z,101411.19
2022-10-09T17:39:00.825Z,101419.88
2022-10-09T17:41:29.328Z,101423.81
2022-10-09T17:43:57.923Z,101428.03
2022-10-09T17:46:28.374Z,101429.22
2022-10-09T17:48:57.070Z,101430.94
2022-10-09T17:51:28.602Z,101437.16
2022-10-09T17:53:59.287Z,101434.03
2022-10-09T17:56:28.076Z,101434.06
2022-10-09T17:58:56.148Z,101438.28
2022-10-09T18:01:24.479Z,101444.50
2022-10-09T18:03:52.631Z,101448.72
2022-10-09T18:06:24.977Z,101458.34
2022-10-09T18:08:55.500Z,101450.84
2022-10-09T18:11:25.498Z,101457.69
2022-10-09T18:13:54.473Z,101458.00
2022-10-09T18:16:35.429Z,101470.75
2022-10-09T18:19:13.029Z,101463.59
2022-10-09T18:21:44.276Z,101469.63
2022-10-09T18:24:12.775Z,101469.41
2022-10-09T18:26:42.260Z,101469.28
2022-10-09T18:29:09.990Z,101468.97
2022-10-09T18:31:38.612Z,101470.06
2022-10-09T18:34:06.736Z,101477.81
2022-10-09T18:36:35.007Z,101474.03
2022-10-09T18:39:04.768Z,101475.94
2022-10-09T18:41:32.292Z,101477.81
2022-10-09T18:44:01.830Z,101479.47
2022-10-09T18:46:38.255Z,101484.94
2022-10-09T18:49:09.570Z,101482.44
2022-10-09T18:51:41.647Z,101481.31
2022-10-09T18:54:14.430Z,101480.50
2022-10-09T18:56:45.230Z,101479.66
2022-10-09T18:59:17.240Z,101484.97
2022-10-09T19:01:44.843Z,101493.78
2022-10-09T19:04:13.028Z,101485.56
2022-10-09T19:06:40.742Z,101493.56
2022-10-09T19:09:08.665Z,101495.63
2022-10-09T19:11:36.628Z,101495.84
2022-10-09T19:14:04.153Z,101513.41
2022-10-09T19:16:33.895Z,101504.34
2022-10-09T19:19:01.613Z,101502.66
2022-10-09T19:21:29.839Z,101508.97
2022-10-09T19:24:03.369Z,101512.75
2022-10-09T19:26:30.890Z,101500.41
2022-10-09T19:28:58.960Z,101508.38
2022-10-09T19:31:26.617Z,101507.97
2022-10-09T19:33:54.162Z,101511.22
2022-10-09T19:36:21.708Z,101511.91
2022-10-09T19:38:49.234Z,101512.75
2022-10-09T19:41:16.779Z,101512.22
2022-10-09T19:43:44.811Z,101515.84
2022-10-09T19:46:17.334Z,101517.81
2022-10-09T19:48:46.168Z,101515.72
2022-10-09T19:51:17.299Z,101517.69
2022-10-09T19:53:45.254Z,101521.19
2022-10-09T19:56:19.773Z,101518.78
2022-10-09T19:58:48.931Z,101518.13
2022-10-09T20:01:19.847Z,101527.47
2022-10-09T20:03:48.908Z,101526.50
2022-10-09T20:06:16.393Z,101527.59
2022-10-09T20:08:45.444Z,101536.03
2022-10-09T20:11:13.971Z,101537.78
2022-10-09T20:13:43.063Z,101544.97
2022-10-09T20:16:15.148Z,101538.94
2022-10-09T20:18:43.744Z,101546.09
2022-10-09T20:21:14.061Z,101541.03
2022-10-09T20:23:44.352Z,101540.31
2022-10-09T20:26:17.302Z,101538.38
2022-10-09T20:28:46.955Z,101550.31
2022-10-09T20:31:19.567Z,101546.38
2022-10-09T20:33:49.005Z,101549.16
2022-10-09T20:36:37.466Z,101547.78
2022-10-09T20:39:11.302Z,101549.72
2022-10-09T20:41:39.778Z,101552.47
2022-10-09T20:44:07.982Z,101553.09
2022-10-09T20:46:37.577Z,101555.00
2022-10-09T20:49:08.681Z,101553.03
2022-10-09T20:51:37.552Z,101557.09
2022-10-09T20:54:06.499Z,101558.34
2022-10-09T20:56:34.816Z,101557.22
2022-10-09T20:59:03.691Z,101563.53
2022-10-09T21:01:31.797Z,101563.50
2022-10-09T21:03:59.560Z,101556.09
2022-10-09T21:06:27.185Z,101555.38
2022-10-09T21:08:55.292Z,101566.16
2022-10-09T21:11:24.091Z,101556.22
2022-10-09T21:13:51.903Z,101552.97
2022-10-09T21:16:22.084Z,101557.47
2022-10-09T21:18:57.502Z,101563.09
2022-10-09T21:21:26.538Z,101553.00
2022-10-09T21:23:56.123Z,101547.38
2022-10-09T21:26:24.020Z,101546.09
2022-10-09T21:28:56.753Z,101550.44
2022-10-09T21:31:28.649Z,101545.56
2022-10-09T21:33:58.087Z,101551.72
2022-10-09T21:37:02.169Z,101550.41
2022-10-09T21:39:32.463Z,101549.31
2022-10-09T21:41:59.956Z,101542.63
2022-10-09T21:44:28.020Z,101543.88
2022-10-09T21:46:56.457Z,101546.25
2022-10-09T21:49:27.341Z,101553.75
2022-10-09T21:51:56.062Z,101555.44
2022-10-09T21:54:24.149Z,101545.09
2022-10-09T21:56:52.110Z,101551.13
2022-10-09T21:59:19.657Z,101547.09
2022-10-09T22:01:47.370Z,101550.16
2022-10-09T22:04:15.091Z,101554.03
2022-10-09T22:06:43.478Z,101549.44
2022-10-09T22:09:12.217Z,101550.72
2022-10-09T22:11:39.811Z,101556.00
2022-10-09T22:14:07.570Z,101546.34
2022-10-09T22:16:35.113Z,101549.41
2022-10-09T22:19:03.093Z,101542.63
2022-10-09T22:21:31.322Z,101546.50
2022-10-09T22:24:00.502Z,101542.31
2022-10-09T22:26:28.218Z,101538.44
2022-10-09T22:28:55.755Z,101535.16
2022-10-09T22:31:25.615Z,101536.59
2022-10-09T22:34:00.943Z,101537.06
2022-10-09T22:36:31.675Z,101528.13
2022-10-09T22:39:02.089Z,101526.31
2022-10-09T22:41:30.798Z,101533.22
2022-10-09T22:44:00.153Z,101527.19
2022-10-09T22:46:34.720Z,101524.63
2022-10-09T22:49:02.879Z,101522.16
2022-10-09T22:51:31.595Z,101512.88
2022-10-09T22:54:00.478Z,101512.59
2022-10-09T22:56:38.165Z,101508.69
2022-10-09T22:59:06.988Z,101502.22
2022-10-09T23:01:39.725Z,101504.06
2022-10-09T23:04:10.750Z,101501.97
2022-10-09T23:06:38.806Z,101499.47
2022-10-09T23:09:08.738Z,101498.50
2022-10-09T23:11:36.976Z,101503.41
2022-10-09T23:14:05.430Z,101497.25
2022-10-09T23:16:34.064Z,101493.16
2022-10-09T23:19:06.751Z,101498.50
2022-10-09T23:21:37.856Z,101498.25
2022-10-09T23:24:06.439Z,101499.22
2022-10-09T23:26:36.943Z,101498.88
2022-10-09T23:29:12.518Z,101491.72
2022-10-09T23:31:40.638Z,101494.69
2022-10-09T23:34:08.205Z,101491.19
2022-10-09T23:36:36.311Z,101497.03
2022-10-09T23:39:06.163Z,101499.88
2022-10-09T23:41:34.850Z,101494.03
2022-10-09T23:44:02.448Z,101497.78
2022-10-09T23:46:33.867Z,101499.34
2022-10-09T23:49:02.013Z,101495.56
2022-10-09T23:51:30.110Z,101486.75
2022-10-09T23:53:58.311Z,101490.66
2022-10-09T23:56:32.281Z,101498.25
2022-10-09T23:59:01.764Z,101493.06
